sensor_id;sensor_type;location;lat;lon;timestamp;temperature;humidity
26186;DHT22;20067;48.764;9.176;2023-09-12T00:01:06;22.40;91.30
26186;DHT22;20067;48.764;9.176;2023-09-12T00:03:32;22.40;91.30
26186;DHT22;20067;48.764;9.176;2023-09-12T00:06:00;22.30;91.30
26186;DHT22;20067;48.764;9.176;2023-09-12T00:08:26;22.00;91.30
26186;DHT22;20067;48.764;9.176;2023-09-12T00:11:09;22.40;91.30
26186;DHT22;20067;48.764;9.176;2023-09-12T00:13:39;22.40;91.30
26186;DHT22;20067;48.764;9.176;2023-09-12T00:16:07;22.70;91.30
26186;DHT22;20067;48.764;9.176;2023-09-12T00:18:35;22.30;91.30
26186;DHT22;20067;48.764;9.176;2023-09-12T00:21:01;22.30;91.30
26186;DHT22;20067;48.764;9.176;2023-09-12T00:23:27;22.30;91.30
26186;DHT22;20067;48.764;9.176;2023-09-12T00:25:53;22.00;91.30
26186;DHT22;20067;48.764;9.176;2023-09-12T00:28:19;21.90;91.30
26186;DHT22;20067;48.764;9.176;2023-09-12T00:30:45;21.90;91.30
26186;DHT22;20067;48.764;9.176;2023-09-12T00:33:10;22.10;91.30
26186;DHT22;20067;48.764;9.176;2023-09-12T00:35:36;22.10;91.30
26186;DHT22;20067;48.764;9.176;2023-09-12T00:38:01;22.20;91.30
26186;DHT22;20067;48.764;9.176;2023-09-12T00:40:28;21.90;91.30
26186;DHT22;20067;48.764;9.176;2023-09-12T00:42:54;22.00;91.30
26186;DHT22;20067;48.764;9.176;2023-09-12T00:45:20;22.00;91.30
26186;DHT22;20067;48.764;9.176;2023-09-12T00:47:46;21.70;91.30
26186;DHT22;20067;48.764;9.176;2023-09-12T00:50:13;21.50;91.30
26186;DHT22;20067;48.764;9.176;2023-09-12T00:52:40;21.70;91.30
26186;DHT22;20067;48.764;9.176;2023-09-12T00:55:07;21.50;91.30
26186;DHT22;20067;48.764;9.176;2023-09-12T00:57:34;21.50;91.30
26186;DHT22;20067;48.764;9.176;2023-09-12T01:00:02;21.90;91.30
26186;DHT22;20067;48.764;9.176;2023-09-12T01:02:37;21.60;91.30
26186;DHT22;20067;48.764;9.176;2023-09-12T01:05:03;21.20;91.30
26186;DHT22;20067;48.764;9.176;2023-09-12T01:07:30;21.30;91.30
26186;DHT22;20067;48.764;9.176;2023-09-12T01:09:55;21.40;91.30
26186;DHT22;20067;48.764;9.176;2023-09-12T01:12:21;21.50;91.30
26186;DHT22;20067;48.764;9.176;2023-09-12T01:14:47;21.90;91.30
26186;DHT22;20067;48.764;9.176;2023-09-12T01:17:12;22.20;91.30
26186;DHT22;20067;48.764;9.176;2023-09-12T01:19:38;22.10;91.30
26186;DHT22;20067;48.764;9.176;2023-09-12T01:29:43;21.30;91.30
26186;DHT22;20067;48.764;9.176;2023-09-12T01:32:11;21.40;91.30
26186;DHT22;20067;48.764;9.176;2023-09-12T01:34:37;21.30;91.30
26186;DHT22;20067;48.764;9.176;2023-09-12T01:37:03;21.10;91.30
26186;DHT22;20067;48.764;9.176;2023-09-12T01:39:28;21.30;91.30
26186;DHT22;20067;48.764;9.176;2023-09-12T01:41:54;21.30;91.30
26186;DHT22;20067;48.764;9.176;2023-09-12T01:44:23;21.20;91.30
26186;DHT22;20067;48.764;9.176;2023-09-12T01:46:49;21.20;91.30
26186;DHT22;20067;48.764;9.176;2023-09-12T01:49:19;21.20;91.30
26186;DHT22;20067;48.764;9.176;2023-09-12T01:51:46;21.40;91.30
26186;DHT22;20067;48.764;9.176;2023-09-12T01:54:12;21.20;91.30
26186;DHT22;20067;48.764;9.176;2023-09-12T01:56:39;21.10;91.30
26186;DHT22;20067;48.764;9.176;2023-09-12T01:59:06;21.10;91.30
26186;DHT22;20067;48.764;9.176;2023-09-12T02:01:31;21.30;91.30
26186;DHT22;20067;48.764;9.176;2023-09-12T02:03:57;21.20;91.30
26186;DHT22;20067;48.764;9.176;2023-09-12T02:06:23;21.30;91.30
26186;DHT22;20067;48.764;9.176;2023-09-12T02:08:49;21.40;91.30
26186;DHT22;20067;48.764;9.176;2023-09-12T02:11:14;21.40;91.30
26186;DHT22;20067;48.764;9.176;2023-09-12T02:13:40;21.40;91.30
26186;DHT22;20067;48.764;9.176;2023-09-12T02:16:05;21.20;91.30
26186;DHT22;20067;48.764;9.176;2023-09-12T02:18:31;21.20;91.30
26186;DHT22;20067;48.764;9.176;2023-09-12T02:20:58;21.10;91.30
26186;DHT22;20067;48.764;9.176;2023-09-12T02:23:24;20.70;91.30
26186;DHT22;20067;48.764;9.176;2023-09-12T02:25:50;20.80;91.30
26186;DHT22;20067;48.764;9.176;2023-09-12T02:28:15;20.70;91.30
26186;DHT22;20067;48.764;9.176;2023-09-12T02:30:41;21.20;91.30
26186;DHT22;20067;48.764;9.176;2023-09-12T02:33:07;21.20;91.30
26186;DHT22;20067;48.764;9.176;2023-09-12T02:35:32;21.50;91.30
26186;DHT22;20067;48.764;9.176;2023-09-12T02:37:58;21.60;91.30
26186;DHT22;20067;48.764;9.176;2023-09-12T02:40:24;21.50;91.30
26186;DHT22;20067;48.764;9.176;2023-09-12T02:42:50;21.20;91.30
26186;DHT22;20067;48.764;9.176;2023-09-12T02:45:15;21.10;91.30
26186;DHT22;20067;48.764;9.176;2023-09-12T02:47:41;21.00;91.30
26186;DHT22;20067;48.764;9.176;2023-09-12T02:50:09;21.00;91.30
26186;DHT22;20067;48.764;9.176;2023-09-12T02:52:34;21.30;91.30
26186;DHT22;20067;48.764;9.176;2023-09-12T02:55:00;21.40;91.30
26186;DHT22;20067;48.764;9.176;2023-09-12T02:57:25;21.20;91.30
26186;DHT22;20067;48.764;9.176;2023-09-12T02:59:51;21.20;91.30
26186;DHT22;20067;48.764;9.176;2023-09-12T03:02:17;21.20;91.30
26186;DHT22;20067;48.764;9.176;2023-09-12T03:04:42;21.00;91.30
26186;DHT22;20067;48.764;9.176;2023-09-12T03:07:08;20.90;91.30
26186;DHT22;20067;48.764;9.176;2023-09-12T03:09:33;20.70;91.30
26186;DHT22;20067;48.764;9.176;2023-09-12T03:12:01;20.90;91.30
26186;DHT22;20067;48.764;9.176;2023-09-12T03:14:28;20.90;91.30
26186;DHT22;20067;48.764;9.176;2023-09-12T03:16:53;21.30;91.30
26186;DHT22;20067;48.764;9.176;2023-09-12T03:19:19;20.70;91.30
26186;DHT22;20067;48.764;9.176;2023-09-12T03:21:45;20.90;91.30
26186;DHT22;20067;48.764;9.176;2023-09-12T03:24:11;20.80;91.30
26186;DHT22;20067;48.764;9.176;2023-09-12T03:26:37;20.50;91.30
26186;DHT22;20067;48.764;9.176;2023-09-12T03:29:03;21.00;91.30
26186;DHT22;20067;48.764;9.176;2023-09-12T03:31:29;21.20;91.30
26186;DHT22;20067;48.764;9.176;2023-09-12T03:33:55;21.20;91.30
26186;DHT22;20067;48.764;9.176;2023-09-12T03:36:21;20.90;91.30
26186;DHT22;20067;48.764;9.176;2023-09-12T03:38:46;20.60;91.30
26186;DHT22;20067;48.764;9.176;2023-09-12T03:41:12;20.70;91.30
26186;DHT22;20067;48.764;9.176;2023-09-12T03:43:38;20.90;91.30
26186;DHT22;20067;48.764;9.176;2023-09-12T03:46:04;20.90;91.30
26186;DHT22;20067;48.764;9.176;2023-09-12T03:48:30;21.20;91.30
26186;DHT22;20067;48.764;9.176;2023-09-12T03:50:59;20.90;91.30
26186;DHT22;20067;48.764;9.176;2023-09-12T03:53:25;21.00;91.30
26186;DHT22;20067;48.764;9.176;2023-09-12T03:55:52;20.90;91.30
26186;DHT22;20067;48.764;9.176;2023-09-12T03:58:17;20.70;91.30
26186;DHT22;20067;48.764;9.176;2023-09-12T04:00:43;20.40;91.30
26186;DHT22;20067;48.764;9.176;2023-09-12T04:03:09;20.50;91.30
26186;DHT22;20067;48.764;9.176;2023-09-12T04:05:34;20.80;91.30
26186;DHT22;20067;48.764;9.176;2023-09-12T04:08:00;20.60;91.30
26186;DHT22;20067;48.764;9.176;2023-09-12T04:10:26;20.40;91.30
26186;DHT22;20067;48.764;9.176;2023-09-12T04:12:52;20.60;91.30
26186;DHT22;20067;48.764;9.176;2023-09-12T04:15:17;20.80;91.30
26186;DHT22;20067;48.764;9.176;2023-09-12T04:17:43;20.80;91.30
26186;DHT22;20067;48.764;9.176;2023-09-12T04:20:09;20.80;91.30
26186;DHT22;20067;48.764;9.176;2023-09-12T04:22:35;21.00;91.30
26186;DHT22;20067;48.764;9.176;2023-09-12T04:25:01;21.00;91.30
26186;DHT22;20067;48.764;9.176;2023-09-12T04:27:26;20.70;91.30
26186;DHT22;20067;48.764;9.176;2023-09-12T04:29:52;20.80;91.30
26186;DHT22;20067;48.764;9.176;2023-09-12T04:32:17;20.90;91.30
26186;DHT22;20067;48.764;9.176;2023-09-12T04:34:49;20.60;91.30
26186;DHT22;20067;48.764;9.176;2023-09-12T04:37:14;20.30;91.30
26186;DHT22;20067;48.764;9.176;2023-09-12T04:39:40;20.30;91.30
26186;DHT22;20067;48.764;9.176;2023-09-12T04:42:05;20.60;91.30
26186;DHT22;20067;48.764;9.176;2023-09-12T04:44:40;20.70;91.30
26186;DHT22;20067;48.764;9.176;2023-09-12T04:47:06;20.70;91.30
26186;DHT22;20067;48.764;9.176;2023-09-12T04:49:32;20.40;91.30
26186;DHT22;20067;48.764;9.176;2023-09-12T04:51:57;20.30;91.30
26186;DHT22;20067;48.764;9.176;2023-09-12T04:54:23;20.40;91.30
26186;DHT22;20067;48.764;9.176;2023-09-12T04:56:48;20.10;91.30
26186;DHT22;20067;48.764;9.176;2023-09-12T04:59:14;20.10;91.30
26186;DHT22;20067;48.764;9.176;2023-09-12T05:01:40;20.60;91.30
26186;DHT22;20067;48.764;9.176;2023-09-12T05:04:06;20.60;91.30
26186;DHT22;20067;48.764;9.176;2023-09-12T05:06:31;20.40;91.30
26186;DHT22;20067;48.764;9.176;2023-09-12T05:08:57;20.60;91.30
26186;DHT22;20067;48.764;9.176;2023-09-12T05:11:23;20.60;91.30
26186;DHT22;20067;48.764;9.176;2023-09-12T05:13:50;20.80;91.30
26186;DHT22;20067;48.764;9.176;2023-09-12T05:16:15;20.80;91.30
26186;DHT22;20067;48.764;9.176;2023-09-12T05:18:41;20.60;91.30
26186;DHT22;20067;48.764;9.176;2023-09-12T05:21:06;20.60;91.30
26186;DHT22;20067;48.764;9.176;2023-09-12T05:23:32;20.50;91.30
26186;DHT22;20067;48.764;9.176;2023-09-12T05:25:58;20.60;91.30
26186;DHT22;20067;48.764;9.176;2023-09-12T05:28:24;20.90;91.30
26186;DHT22;20067;48.764;9.176;2023-09-12T05:30:49;20.50;91.30
26186;DHT22;20067;48.764;9.176;2023-09-12T05:33:16;20.50;91.30
26186;DHT22;20067;48.764;9.176;2023-09-12T05:35:42;20.90;91.30
26186;DHT22;20067;48.764;9.176;2023-09-12T05:38:09;21.10;91.30
26186;DHT22;20067;48.764;9.176;2023-09-12T05:40:35;21.10;91.30
26186;DHT22;20067;48.764;9.176;2023-09-12T05:43:01;21.30;91.30
26186;DHT22;20067;48.764;9.176;2023-09-12T05:45:27;21.40;91.30
26186;DHT22;20067;48.764;9.176;2023-09-12T05:47:55;21.30;91.30
26186;DHT22;20067;48.764;9.176;2023-09-12T05:50:20;21.40;91.30
26186;DHT22;20067;48.764;9.176;2023-09-12T05:52:46;21.50;91.30
26186;DHT22;20067;48.764;9.176;2023-09-12T05:55:12;21.50;91.30
26186;DHT22;20067;48.764;9.176;2023-09-12T05:57:37;21.40;91.30
26186;DHT22;20067;48.764;9.176;2023-09-12T06:00:03;21.40;91.30
26186;DHT22;20067;48.764;9.176;2023-09-12T06:02:35;21.40;91.30
26186;DHT22;20067;48.764;9.176;2023-09-12T06:05:01;21.50;91.30
26186;DHT22;20067;48.764;9.176;2023-09-12T06:07:27;21.60;91.30
26186;DHT22;20067;48.764;9.176;2023-09-12T06:09:52;21.70;91.30
26186;DHT22;20067;48.764;9.176;2023-09-12T06:12:18;21.40;91.30
26186;DHT22;20067;48.764;9.176;2023-09-12T06:14:44;21.60;91.30
26186;DHT22;20067;48.764;9.176;2023-09-12T06:17:09;21.50;91.30
26186;DHT22;20067;48.764;9.176;2023-09-12T06:19:36;21.40;91.30
26186;DHT22;20067;48.764;9.176;2023-09-12T06:22:02;21.50;91.30
26186;DHT22;20067;48.764;9.176;2023-09-12T06:24:28;21.80;91.30
26186;DHT22;20067;48.764;9.176;2023-09-12T06:26:54;22.10;91.30
26186;DHT22;20067;48.764;9.176;2023-09-12T06:29:20;22.10;91.30
26186;DHT22;20067;48.764;9.176;2023-09-12T06:31:46;22.10;91.30
26186;DHT22;20067;48.764;9.176;2023-09-12T06:40:56;22.60;90.80
26186;DHT22;20067;48.764;9.176;2023-09-12T06:43:23;22.60;91.30
26186;DHT22;20067;48.764;9.176;2023-09-12T06:45:48;22.60;91.10
26186;DHT22;20067;48.764;9.176;2023-09-12T06:55:00;22.10;91.30
26186;DHT22;20067;48.764;9.176;2023-09-12T06:57:26;22.00;91.30
26186;DHT22;20067;48.764;9.176;2023-09-12T06:59:52;22.20;91.30
26186;DHT22;20067;48.764;9.176;2023-09-12T07:02:17;22.00;91.30
26186;DHT22;20067;48.764;9.176;2023-09-12T07:04:43;22.30;91.30
26186;DHT22;20067;48.764;9.176;2023-09-12T07:07:09;22.50;91.30
26186;DHT22;20067;48.764;9.176;2023-09-12T07:09:35;22.40;91.30
26186;DHT22;20067;48.764;9.176;2023-09-12T07:12:03;22.10;91.30
26186;DHT22;20067;48.764;9.176;2023-09-12T07:14:31;22.00;91.30
26186;DHT22;20067;48.764;9.176;2023-09-12T07:16:56;22.30;91.30
26186;DHT22;20067;48.764;9.176;2023-09-12T07:19:23;22.60;91.30
26186;DHT22;20067;48.764;9.176;2023-09-12T07:21:49;23.10;90.20
26186;DHT22;20067;48.764;9.176;2023-09-12T07:24:15;22.90;90.40
26186;DHT22;20067;48.764;9.176;2023-09-12T07:26:40;23.00;91.30
26186;DHT22;20067;48.764;9.176;2023-09-12T07:29:06;23.10;90.20
26186;DHT22;20067;48.764;9.176;2023-09-12T07:31:32;23.40;89.90
26186;DHT22;20067;48.764;9.176;2023-09-12T07:33:58;23.30;89.20
26186;DHT22;20067;48.764;9.176;2023-09-12T07:36:23;23.00;90.60
26186;DHT22;20067;48.764;9.176;2023-09-12T07:38:49;23.10;90.60
26186;DHT22;20067;48.764;9.176;2023-09-12T07:41:15;23.20;89.70
26186;DHT22;20067;48.764;9.176;2023-09-12T07:43:41;23.10;91.30
26186;DHT22;20067;48.764;9.176;2023-09-12T07:46:06;23.50;90.60
26186;DHT22;20067;48.764;9.176;2023-09-12T07:48:32;23.70;88.60
26186;DHT22;20067;48.764;9.176;2023-09-12T07:50:58;24.20;87.00
26186;DHT22;20067;48.764;9.176;2023-09-12T07:53:23;24.50;85.80
26186;DHT22;20067;48.764;9.176;2023-09-12T07:55:50;25.10;85.50
26186;DHT22;20067;48.764;9.176;2023-09-12T07:58:18;25.10;84.10
26186;DHT22;20067;48.764;9.176;2023-09-12T08:00:45;25.10;85.20
26186;DHT22;20067;48.764;9.176;2023-09-12T08:03:11;25.70;83.70
26186;DHT22;20067;48.764;9.176;2023-09-12T08:05:37;26.10;82.60
26186;DHT22;20067;48.764;9.176;2023-09-12T08:08:03;26.00;82.40
26186;DHT22;20067;48.764;9.176;2023-09-12T08:10:29;26.40;82.80
26186;DHT22;20067;48.764;9.176;2023-09-12T08:12:55;26.30;81.40
26186;DHT22;20067;48.764;9.176;2023-09-12T08:15:21;25.90;82.90
26186;DHT22;20067;48.764;9.176;2023-09-12T08:17:46;25.70;84.60
26186;DHT22;20067;48.764;9.176;2023-09-12T08:20:17;26.20;84.10
26186;DHT22;20067;48.764;9.176;2023-09-12T08:22:43;26.50;81.60
26186;DHT22;20067;48.764;9.176;2023-09-12T08:25:09;26.20;81.70
26186;DHT22;20067;48.764;9.176;2023-09-12T08:27:35;26.30;82.30
26186;DHT22;20067;48.764;9.176;2023-09-12T08:30:01;26.00;81.80
26186;DHT22;20067;48.764;9.176;2023-09-12T08:32:27;26.00;83.00
26186;DHT22;20067;48.764;9.176;2023-09-12T08:34:53;25.90;82.00
26186;DHT22;20067;48.764;9.176;2023-09-12T08:37:18;25.80;82.50
26186;DHT22;20067;48.764;9.176;2023-09-12T08:39:45;25.70;82.50
26186;DHT22;20067;48.764;9.176;2023-09-12T08:42:15;25.40;83.20
26186;DHT22;20067;48.764;9.176;2023-09-12T08:44:42;26.10;82.30
26186;DHT22;20067;48.764;9.176;2023-09-12T08:47:09;26.30;81.60
26186;DHT22;20067;48.764;9.176;2023-09-12T08:49:35;26.30;81.80
26186;DHT22;20067;48.764;9.176;2023-09-12T08:52:03;26.30;81.20
26186;DHT22;20067;48.764;9.176;2023-09-12T08:54:29;26.40;81.30
26186;DHT22;20067;48.764;9.176;2023-09-12T08:56:55;27.70;82.50
26186;DHT22;20067;48.764;9.176;2023-09-12T08:59:21;28.50;75.90
26186;DHT22;20067;48.764;9.176;2023-09-12T09:01:47;28.40;76.10
26186;DHT22;20067;48.764;9.176;2023-09-12T09:04:18;28.00;77.30
26186;DHT22;20067;48.764;9.176;2023-09-12T09:06:45;27.90;77.40
26186;DHT22;20067;48.764;9.176;2023-09-12T09:09:12;27.90;77.50
26186;DHT22;20067;48.764;9.176;2023-09-12T09:11:38;27.70;78.00
26186;DHT22;20067;48.764;9.176;2023-09-12T09:14:03;27.70;78.20
26186;DHT22;20067;48.764;9.176;2023-09-12T09:16:29;27.70;78.00
26186;DHT22;20067;48.764;9.176;2023-09-12T09:19:04;28.10;81.10
26186;DHT22;20067;48.764;9.176;2023-09-12T09:21:35;28.50;76.00
26186;DHT22;20067;48.764;9.176;2023-09-12T09:24:03;28.70;75.40
26186;DHT22;20067;48.764;9.176;2023-09-12T09:26:55;28.40;76.40
26186;DHT22;20067;48.764;9.176;2023-09-12T09:29:26;28.40;76.50
26186;DHT22;20067;48.764;9.176;2023-09-12T09:31:57;28.30;76.40
26186;DHT22;20067;48.764;9.176;2023-09-12T09:34:23;28.40;76.60
26186;DHT22;20067;48.764;9.176;2023-09-12T09:36:53;28.40;76.60
26186;DHT22;20067;48.764;9.176;2023-09-12T09:39:21;28.90;75.20
26186;DHT22;20067;48.764;9.176;2023-09-12T09:41:52;29.00;74.90
26186;DHT22;20067;48.764;9.176;2023-09-12T09:44:18;28.80;76.10
26186;DHT22;20067;48.764;9.176;2023-09-12T09:46:46;28.60;76.40
26186;DHT22;20067;48.764;9.176;2023-09-12T09:49:16;29.10;75.30
26186;DHT22;20067;48.764;9.176;2023-09-12T09:51:44;28.80;75.70
26186;DHT22;20067;48.764;9.176;2023-09-12T09:54:12;28.80;76.80
26186;DHT22;20067;48.764;9.176;2023-09-12T09:56:48;29.10;75.60
26186;DHT22;20067;48.764;9.176;2023-09-12T09:59:15;29.40;74.70
26186;DHT22;20067;48.764;9.176;2023-09-12T10:01:43;29.20;75.30
26186;DHT22;20067;48.764;9.176;2023-09-12T10:04:10;29.10;75.70
26186;DHT22;20067;48.764;9.176;2023-09-12T10:06:37;29.20;75.10
26186;DHT22;20067;48.764;9.176;2023-09-12T10:09:08;29.30;75.00
26186;DHT22;20067;48.764;9.176;2023-09-12T10:11:35;29.20;75.70
26186;DHT22;20067;48.764;9.176;2023-09-12T10:14:05;29.50;75.20
26186;DHT22;20067;48.764;9.176;2023-09-12T10:16:32;29.60;74.70
26186;DHT22;20067;48.764;9.176;2023-09-12T10:24:23;30.30;72.90
26186;DHT22;20067;48.764;9.176;2023-09-12T10:26:53;30.80;72.80
26186;DHT22;20067;48.764;9.176;2023-09-12T10:29:20;31.50;70.90
26186;DHT22;20067;48.764;9.176;2023-09-12T10:31:48;31.50;69.60
26186;DHT22;20067;48.764;9.176;2023-09-12T10:34:19;31.60;68.90
26186;DHT22;20067;48.764;9.176;2023-09-12T10:36:46;32.30;67.90
26186;DHT22;20067;48.764;9.176;2023-09-12T10:39:13;32.90;66.30
26186;DHT22;20067;48.764;9.176;2023-09-12T10:41:40;33.30;64.80
26186;DHT22;20067;48.764;9.176;2023-09-12T10:44:16;33.50;64.80
26186;DHT22;20067;48.764;9.176;2023-09-12T10:46:44;33.60;63.40
26186;DHT22;20067;48.764;9.176;2023-09-12T10:49:13;33.80;63.30
26186;DHT22;20067;48.764;9.176;2023-09-12T10:51:43;34.90;62.60
26186;DHT22;20067;48.764;9.176;2023-09-12T10:54:16;35.10;60.00
26186;DHT22;20067;48.764;9.176;2023-09-12T10:57:05;35.90;58.70
26186;DHT22;20067;48.764;9.176;2023-09-12T10:59:31;34.60;60.40
26186;DHT22;20067;48.764;9.176;2023-09-12T11:02:31;35.00;60.10
26186;DHT22;20067;48.764;9.176;2023-09-12T11:04:58;35.60;58.80
26186;DHT22;20067;48.764;9.176;2023-09-12T11:10:26;35.10;59.30
26186;DHT22;20067;48.764;9.176;2023-09-12T11:12:54;36.80;57.40
26186;DHT22;20067;48.764;9.176;2023-09-12T11:15:24;37.30;57.20
26186;DHT22;20067;48.764;9.176;2023-09-12T11:18:00;37.70;54.00
26186;DHT22;20067;48.764;9.176;2023-09-12T11:23:14;37.60;54.30
26186;DHT22;20067;48.764;9.176;2023-09-12T11:25:40;37.70;56.50
26186;DHT22;20067;48.764;9.176;2023-09-12T11:28:06;37.70;55.70
26186;DHT22;20067;48.764;9.176;2023-09-12T11:30:32;38.10;53.40
26186;DHT22;20067;48.764;9.176;2023-09-12T11:33:05;38.30;53.10
26186;DHT22;20067;48.764;9.176;2023-09-12T11:35:36;38.70;52.40
26186;DHT22;20067;48.764;9.176;2023-09-12T11:38:02;38.50;54.10
26186;DHT22;20067;48.764;9.176;2023-09-12T11:43:00;36.10;55.80
26186;DHT22;20067;48.764;9.176;2023-09-12T11:45:26;36.20;55.80
26186;DHT22;20067;48.764;9.176;2023-09-12T11:47:53;36.30;55.80
26186;DHT22;20067;48.764;9.176;2023-09-12T11:50:33;37.10;54.30
26186;DHT22;20067;48.764;9.176;2023-09-12T11:53:01;36.60;55.00
26186;DHT22;20067;48.764;9.176;2023-09-12T11:55:27;37.10;54.80
26186;DHT22;20067;48.764;9.176;2023-09-12T11:57:55;37.80;52.90
26186;DHT22;20067;48.764;9.176;2023-09-12T12:00:22;37.80;52.90
26186;DHT22;20067;48.764;9.176;2023-09-12T12:02:48;37.50;52.70
26186;DHT22;20067;48.764;9.176;2023-09-12T12:05:13;37.60;54.00
26186;DHT22;20067;48.764;9.176;2023-09-12T12:07:39;37.80;52.60
26186;DHT22;20067;48.764;9.176;2023-09-12T12:10:05;37.40;54.70
26186;DHT22;20067;48.764;9.176;2023-09-12T12:12:31;37.90;52.60
26186;DHT22;20067;48.764;9.176;2023-09-12T12:14:56;37.90;51.90
26186;DHT22;20067;48.764;9.176;2023-09-12T12:17:22;38.10;51.80
26186;DHT22;20067;48.764;9.176;2023-09-12T12:19:48;37.90;52.00
26186;DHT22;20067;48.764;9.176;2023-09-12T12:22:13;38.20;51.20
26186;DHT22;20067;48.764;9.176;2023-09-12T12:24:46;37.70;52.20
26186;DHT22;20067;48.764;9.176;2023-09-12T12:27:16;36.70;53.40
26186;DHT22;20067;48.764;9.176;2023-09-12T12:29:41;36.90;52.60
26186;DHT22;20067;48.764;9.176;2023-09-12T12:32:10;37.90;51.70
26186;DHT22;20067;48.764;9.176;2023-09-12T12:34:36;38.30;49.80
26186;DHT22;20067;48.764;9.176;2023-09-12T12:37:02;38.30;50.90
26186;DHT22;20067;48.764;9.176;2023-09-12T12:39:28;38.20;52.10
26186;DHT22;20067;48.764;9.176;2023-09-12T12:41:54;38.10;51.10
26186;DHT22;20067;48.764;9.176;2023-09-12T12:44:21;38.80;49.40
26186;DHT22;20067;48.764;9.176;2023-09-12T12:46:54;39.50;48.50
26186;DHT22;20067;48.764;9.176;2023-09-12T12:49:21;39.80;47.60
26186;DHT22;20067;48.764;9.176;2023-09-12T12:51:48;39.00;48.60
26186;DHT22;20067;48.764;9.176;2023-09-12T12:54:15;38.90;48.80
26186;DHT22;20067;48.764;9.176;2023-09-12T12:56:42;39.00;48.70
26186;DHT22;20067;48.764;9.176;2023-09-12T12:59:08;39.80;47.10
26186;DHT22;20067;48.764;9.176;2023-09-12T13:01:37;40.30;46.80
26186;DHT22;20067;48.764;9.176;2023-09-12T13:04:10;39.30;47.20
26186;DHT22;20067;48.764;9.176;2023-09-12T13:06:36;36.10;51.50
26186;DHT22;20067;48.764;9.176;2023-09-12T13:09:03;34.90;54.10
26186;DHT22;20067;48.764;9.176;2023-09-12T13:11:31;33.70;55.80
26186;DHT22;20067;48.764;9.176;2023-09-12T13:14:01;33.10;56.60
26186;DHT22;20067;48.764;9.176;2023-09-12T13:16:28;32.50;57.50
26186;DHT22;20067;48.764;9.176;2023-09-12T13:18:54;32.00;58.50
26186;DHT22;20067;48.764;9.176;2023-09-12T13:21:20;32.20;58.60
26186;DHT22;20067;48.764;9.176;2023-09-12T13:23:46;34.10;55.70
26186;DHT22;20067;48.764;9.176;2023-09-12T13:26:11;35.60;52.80
26186;DHT22;20067;48.764;9.176;2023-09-12T13:28:38;36.00;52.20
26186;DHT22;20067;48.764;9.176;2023-09-12T13:31:03;36.70;51.00
26186;DHT22;20067;48.764;9.176;2023-09-12T13:33:29;36.90;50.70
26186;DHT22;20067;48.764;9.176;2023-09-12T13:35:56;36.80;50.30
26186;DHT22;20067;48.764;9.176;2023-09-12T13:38:22;36.90;50.00
26186;DHT22;20067;48.764;9.176;2023-09-12T13:40:48;36.60;51.20
26186;DHT22;20067;48.764;9.176;2023-09-12T13:43:14;34.30;53.40
26186;DHT22;20067;48.764;9.176;2023-09-12T13:45:40;32.80;56.20
26186;DHT22;20067;48.764;9.176;2023-09-12T13:48:06;31.90;58.00
26186;DHT22;20067;48.764;9.176;2023-09-12T13:50:33;31.80;58.40
26186;DHT22;20067;48.764;9.176;2023-09-12T13:53:00;32.10;59.80
26186;DHT22;20067;48.764;9.176;2023-09-12T13:55:29;32.70;57.30
26186;DHT22;20067;48.764;9.176;2023-09-12T13:57:55;33.10;57.10
26186;DHT22;20067;48.764;9.176;2023-09-12T14:00:21;34.50;54.60
26186;DHT22;20067;48.764;9.176;2023-09-12T14:02:47;36.30;51.10
26186;DHT22;20067;48.764;9.176;2023-09-12T14:05:13;36.90;51.50
26186;DHT22;20067;48.764;9.176;2023-09-12T14:07:38;37.00;49.50
26186;DHT22;20067;48.764;9.176;2023-09-12T14:10:08;37.70;49.40
26186;DHT22;20067;48.764;9.176;2023-09-12T14:12:34;38.50;48.70
26186;DHT22;20067;48.764;9.176;2023-09-12T14:15:00;37.80;50.10
26186;DHT22;20067;48.764;9.176;2023-09-12T14:17:26;37.00;51.20
26186;DHT22;20067;48.764;9.176;2023-09-12T14:19:54;36.40;52.10
26186;DHT22;20067;48.764;9.176;2023-09-12T14:22:20;36.60;52.00
26186;DHT22;20067;48.764;9.176;2023-09-12T14:24:47;36.30;52.30
26186;DHT22;20067;48.764;9.176;2023-09-12T14:27:12;35.20;53.90
26186;DHT22;20067;48.764;9.176;2023-09-12T14:29:38;34.80;54.80
26186;DHT22;20067;48.764;9.176;2023-09-12T14:32:04;34.20;56.00
26186;DHT22;20067;48.764;9.176;2023-09-12T14:34:30;33.20;57.50
26186;DHT22;20067;48.764;9.176;2023-09-12T14:36:58;32.70;58.70
26186;DHT22;20067;48.764;9.176;2023-09-12T14:39:24;32.50;60.10
26186;DHT22;20067;48.764;9.176;2023-09-12T14:41:50;32.30;60.70
26186;DHT22;20067;48.764;9.176;2023-09-12T14:44:26;31.80;62.00
26186;DHT22;20067;48.764;9.176;2023-09-12T14:46:53;31.70;62.20
26186;DHT22;20067;48.764;9.176;2023-09-12T14:49:22;31.50;62.20
26186;DHT22;20067;48.764;9.176;2023-09-12T14:51:48;31.20;63.50
26186;DHT22;20067;48.764;9.176;2023-09-12T14:54:13;31.30;63.00
26186;DHT22;20067;48.764;9.176;2023-09-12T14:56:39;31.10;63.30
26186;DHT22;20067;48.764;9.176;2023-09-12T14:59:07;31.00;63.40
26186;DHT22;20067;48.764;9.176;2023-09-12T15:01:34;30.90;63.70
26186;DHT22;20067;48.764;9.176;2023-09-12T15:04:00;30.90;64.00
26186;DHT22;20067;48.764;9.176;2023-09-12T15:06:26;31.10;65.10
26186;DHT22;20067;48.764;9.176;2023-09-12T15:08:52;31.20;63.10
26186;DHT22;20067;48.764;9.176;2023-09-12T15:11:18;31.10;62.90
26186;DHT22;20067;48.764;9.176;2023-09-12T15:13:44;30.90;64.20
26186;DHT22;20067;48.764;9.176;2023-09-12T15:16:11;31.00;64.70
26186;DHT22;20067;48.764;9.176;2023-09-12T15:18:37;31.20;63.90
26186;DHT22;20067;48.764;9.176;2023-09-12T15:21:06;31.20;63.50
26186;DHT22;20067;48.764;9.176;2023-09-12T15:23:32;31.50;63.40
26186;DHT22;20067;48.764;9.176;2023-09-12T15:25:57;32.30;61.20
26186;DHT22;20067;48.764;9.176;2023-09-12T15:28:23;32.70;61.00
26186;DHT22;20067;48.764;9.176;2023-09-12T15:30:49;32.20;60.90
26186;DHT22;20067;48.764;9.176;2023-09-12T15:33:15;31.60;62.00
26186;DHT22;20067;48.764;9.176;2023-09-12T15:35:40;31.20;63.50
26186;DHT22;20067;48.764;9.176;2023-09-12T15:38:06;30.90;63.90
26186;DHT22;20067;48.764;9.176;2023-09-12T15:40:33;30.50;64.50
26186;DHT22;20067;48.764;9.176;2023-09-12T15:42:58;30.20;65.20
26186;DHT22;20067;48.764;9.176;2023-09-12T15:45:24;30.40;65.10
26186;DHT22;20067;48.764;9.176;2023-09-12T15:47:50;30.50;65.10
26186;DHT22;20067;48.764;9.176;2023-09-12T15:50:16;30.20;65.80
26186;DHT22;20067;48.764;9.176;2023-09-12T15:52:41;30.20;67.20
26186;DHT22;20067;48.764;9.176;2023-09-12T15:55:09;30.20;66.10
26186;DHT22;20067;48.764;9.176;2023-09-12T15:57:35;30.30;67.10
26186;DHT22;20067;48.764;9.176;2023-09-12T16:00:06;30.30;66.90
26186;DHT22;20067;48.764;9.176;2023-09-12T16:02:36;30.70;66.50